sensor_id;sensor_type;location;lat;lon;timestamp;P1;durP1;ratioP1;P2;durP2;ratioP2
70850;SDS011;58475;49.662;9.636;2022-09-12T00:00:24;7.80;;;4.40;;
70850;SDS011;58475;49.662;9.636;2022-09-12T00:02:51;8.45;;;4.68;;
70850;SDS011;58475;49.662;9.636;2022-09-12T00:05:17;9.40;;;4.43;;
70850;SDS011;58475;49.662;9.636;2022-09-12T00:07:43;8.90;;;4.70;;
70850;SDS011;58475;49.662;9.636;2022-09-12T00:10:08;7.25;;;4.47;;
70850;SDS011;58475;49.662;9.636;2022-09-12T00:12:33;7.18;;;4.30;;
70850;SDS011;58475;49.662;9.636;2022-09-12T00:14:59;7.40;;;4.18;;
70850;SDS011;58475;49.662;9.636;2022-09-12T00:17:24;11.73;;;4.43;;
70850;SDS011;58475;49.662;9.636;2022-09-12T00:19:50;8.10;;;4.38;;
70850;SDS011;58475;49.662;9.636;2022-09-12T00:22:15;7.00;;;4.30;;
70850;SDS011;58475;49.662;9.636;2022-09-12T00:24:40;7.93;;;4.95;;
70850;SDS011;58475;49.662;9.636;2022-09-12T00:27:06;8.93;;;5.50;;
70850;SDS011;58475;49.662;9.636;2022-09-12T00:29:31;10.40;;;5.95;;
70850;SDS011;58475;49.662;9.636;2022-09-12T00:31:57;10.40;;;6.13;;
70850;SDS011;58475;49.662;9.636;2022-09-12T00:34:22;21.55;;;8.15;;
70850;SDS011;58475;49.662;9.636;2022-09-12T00:36:47;17.20;;;7.95;;
70850;SDS011;58475;49.662;9.636;2022-09-12T00:39:16;16.08;;;7.80;;
70850;SDS011;58475;49.662;9.636;2022-09-12T00:41:41;17.38;;;8.27;;
70850;SDS011;58475;49.662;9.636;2022-09-12T00:46:49;24.13;;;9.00;;
70850;SDS011;58475;49.662;9.636;2022-09-12T00:49:26;17.48;;;7.78;;
70850;SDS011;58475;49.662;9.636;2022-09-12T00:52:10;13.00;;;6.55;;
70850;SDS011;58475;49.662;9.636;2022-09-12T00:54:43;10.07;;;5.60;;
70850;SDS011;58475;49.662;9.636;2022-09-12T00:57:43;10.00;;;5.28;;
70850;SDS011;58475;49.662;9.636;2022-09-12T01:00:15;7.88;;;4.47;;
70850;SDS011;58475;49.662;9.636;2022-09-12T01:02:44;7.72;;;4.53;;
70850;SDS011;58475;49.662;9.636;2022-09-12T01:05:12;7.20;;;4.03;;
70850;SDS011;58475;49.662;9.636;2022-09-12T01:07:38;6.97;;;4.05;;
70850;SDS011;58475;49.662;9.636;2022-09-12T01:10:04;7.20;;;4.25;;
70850;SDS011;58475;49.662;9.636;2022-09-12T01:12:31;8.20;;;4.32;;
70850;SDS011;58475;49.662;9.636;2022-09-12T01:14:58;8.80;;;4.72;;
70850;SDS011;58475;49.662;9.636;2022-09-12T01:17:28;7.70;;;3.75;;
70850;SDS011;58475;49.662;9.636;2022-09-12T01:21:02;8.82;;;4.35;;
70850;SDS011;58475;49.662;9.636;2022-09-12T01:23:11;10.05;;;5.55;;
70850;SDS011;58475;49.662;9.636;2022-09-12T01:31:29;13.73;;;6.70;;
70850;SDS011;58475;49.662;9.636;2022-09-12T01:34:21;12.75;;;6.57;;
70850;SDS011;58475;49.662;9.636;2022-09-12T01:39:52;13.80;;;7.32;;
70850;SDS011;58475;49.662;9.636;2022-09-12T01:48:29;16.05;;;7.40;;
70850;SDS011;58475;49.662;9.636;2022-09-12T01:53:43;20.10;;;7.25;;
70850;SDS011;58475;49.662;9.636;2022-09-12T01:56:13;13.70;;;6.93;;
70850;SDS011;58475;49.662;9.636;2022-09-12T02:01:44;16.85;;;7.25;;
70850;SDS011;58475;49.662;9.636;2022-09-12T02:04:14;18.23;;;7.35;;
70850;SDS011;58475;49.662;9.636;2022-09-12T02:09:23;14.68;;;7.53;;
70850;SDS011;58475;49.662;9.636;2022-09-12T02:11:54;20.73;;;7.53;;
70850;SDS011;58475;49.662;9.636;2022-09-12T02:14:33;14.02;;;6.90;;
70850;SDS011;58475;49.662;9.636;2022-09-12T02:17:07;17.38;;;6.82;;
70850;SDS011;58475;49.662;9.636;2022-09-12T02:19:38;20.80;;;7.35;;
70850;SDS011;58475;49.662;9.636;2022-09-12T02:22:06;14.75;;;7.28;;
70850;SDS011;58475;49.662;9.636;2022-09-12T02:24:37;17.90;;;7.25;;
70850;SDS011;58475;49.662;9.636;2022-09-12T02:27:10;21.95;;;7.00;;
70850;SDS011;58475;49.662;9.636;2022-09-12T02:29:39;21.98;;;7.47;;
70850;SDS011;58475;49.662;9.636;2022-09-12T02:32:05;19.23;;;7.40;;
70850;SDS011;58475;49.662;9.636;2022-09-12T02:34:54;27.92;;;7.60;;
70850;SDS011;58475;49.662;9.636;2022-09-12T02:40:18;23.00;;;7.55;;
70850;SDS011;58475;49.662;9.636;2022-09-12T02:42:44;16.63;;;7.60;;
70850;SDS011;58475;49.662;9.636;2022-09-12T02:45:09;20.48;;;7.00;;
70850;SDS011;58475;49.662;9.636;2022-09-12T02:47:37;18.10;;;7.35;;
70850;SDS011;58475;49.662;9.636;2022-09-12T02:50:07;17.65;;;7.55;;
70850;SDS011;58475;49.662;9.636;2022-09-12T02:52:33;14.35;;;7.40;;
70850;SDS011;58475;49.662;9.636;2022-09-12T02:54:59;15.73;;;7.07;;
70850;SDS011;58475;49.662;9.636;2022-09-12T02:57:26;11.80;;;6.97;;
70850;SDS011;58475;49.662;9.636;2022-09-12T02:59:52;25.52;;;7.38;;
70850;SDS011;58475;49.662;9.636;2022-09-12T03:02:24;15.07;;;8.27;;
70850;SDS011;58475;49.662;9.636;2022-09-12T03:07:49;13.60;;;7.05;;
70850;SDS011;58475;49.662;9.636;2022-09-12T03:10:22;20.17;;;6.82;;
70850;SDS011;58475;49.662;9.636;2022-09-12T03:23:33;14.93;;;6.50;;
70850;SDS011;58475;49.662;9.636;2022-09-12T03:26:16;15.13;;;7.05;;
70850;SDS011;58475;49.662;9.636;2022-09-12T03:28:50;13.85;;;6.75;;
70850;SDS011;58475;49.662;9.636;2022-09-12T03:31:18;16.73;;;7.97;;
70850;SDS011;58475;49.662;9.636;2022-09-12T03:33:44;12.27;;;6.93;;
70850;SDS011;58475;49.662;9.636;2022-09-12T03:36:22;19.42;;;7.35;;
70850;SDS011;58475;49.662;9.636;2022-09-12T03:38:49;15.43;;;7.50;;
70850;SDS011;58475;49.662;9.636;2022-09-12T03:41:14;20.15;;;6.55;;
70850;SDS011;58475;49.662;9.636;2022-09-12T03:43:40;18.30;;;6.47;;
70850;SDS011;58475;49.662;9.636;2022-09-12T03:46:06;19.77;;;6.47;;
70850;SDS011;58475;49.662;9.636;2022-09-12T03:48:31;19.33;;;6.00;;
70850;SDS011;58475;49.662;9.636;2022-09-12T03:51:04;16.65;;;6.32;;
70850;SDS011;58475;49.662;9.636;2022-09-12T03:53:32;12.02;;;6.68;;
70850;SDS011;58475;49.662;9.636;2022-09-12T03:55:58;14.13;;;6.13;;
70850;SDS011;58475;49.662;9.636;2022-09-12T03:58:24;16.90;;;7.22;;
70850;SDS011;58475;49.662;9.636;2022-09-12T04:00:54;15.32;;;7.78;;
70850;SDS011;58475;49.662;9.636;2022-09-12T04:03:19;16.33;;;7.78;;
70850;SDS011;58475;49.662;9.636;2022-09-12T04:05:44;12.90;;;6.70;;
70850;SDS011;58475;49.662;9.636;2022-09-12T04:08:11;16.40;;;7.20;;
70850;SDS011;58475;49.662;9.636;2022-09-12T04:10:37;14.18;;;6.90;;
70850;SDS011;58475;49.662;9.636;2022-09-12T04:13:03;18.65;;;6.28;;
70850;SDS011;58475;49.662;9.636;2022-09-12T04:15:28;13.60;;;6.82;;
70850;SDS011;58475;49.662;9.636;2022-09-12T04:17:54;11.93;;;6.07;;
70850;SDS011;58475;49.662;9.636;2022-09-12T04:20:19;12.07;;;6.30;;
70850;SDS011;58475;49.662;9.636;2022-09-12T04:22:44;12.80;;;5.68;;
70850;SDS011;58475;49.662;9.636;2022-09-12T04:25:10;12.05;;;5.53;;
70850;SDS011;58475;49.662;9.636;2022-09-12T04:27:35;14.10;;;6.00;;
70850;SDS011;58475;49.662;9.636;2022-09-12T04:30:01;10.80;;;5.78;;
70850;SDS011;58475;49.662;9.636;2022-09-12T04:32:28;13.15;;;6.38;;
70850;SDS011;58475;49.662;9.636;2022-09-12T04:34:55;11.50;;;5.97;;
70850;SDS011;58475;49.662;9.636;2022-09-12T04:37:21;11.90;;;6.15;;
70850;SDS011;58475;49.662;9.636;2022-09-12T04:39:47;14.98;;;6.28;;
70850;SDS011;58475;49.662;9.636;2022-09-12T04:42:14;12.35;;;5.72;;
70850;SDS011;58475;49.662;9.636;2022-09-12T04:44:40;22.23;;;6.72;;
70850;SDS011;58475;49.662;9.636;2022-09-12T04:47:05;19.73;;;5.47;;
70850;SDS011;58475;49.662;9.636;2022-09-12T04:49:31;22.58;;;5.50;;
70850;SDS011;58475;49.662;9.636;2022-09-12T04:51:56;14.68;;;6.15;;
70850;SDS011;58475;49.662;9.636;2022-09-12T04:54:21;12.35;;;5.43;;
70850;SDS011;58475;49.662;9.636;2022-09-12T04:56:48;15.20;;;6.25;;
70850;SDS011;58475;49.662;9.636;2022-09-12T04:59:14;14.65;;;5.88;;
70850;SDS011;58475;49.662;9.636;2022-09-12T05:01:41;14.05;;;5.93;;
70850;SDS011;58475;49.662;9.636;2022-09-12T05:04:08;18.10;;;6.75;;
70850;SDS011;58475;49.662;9.636;2022-09-12T05:06:35;24.27;;;6.35;;
70850;SDS011;58475;49.662;9.636;2022-09-12T05:09:02;25.27;;;7.00;;
70850;SDS011;58475;49.662;9.636;2022-09-12T05:11:31;24.13;;;6.68;;
70850;SDS011;58475;49.662;9.636;2022-09-12T05:13:58;22.88;;;6.47;;
70850;SDS011;58475;49.662;9.636;2022-09-12T05:16:24;15.80;;;6.18;;
70850;SDS011;58475;49.662;9.636;2022-09-12T05:18:51;12.50;;;5.38;;
70850;SDS011;58475;49.662;9.636;2022-09-12T05:21:18;11.65;;;6.20;;
70850;SDS011;58475;49.662;9.636;2022-09-12T05:23:45;22.10;;;6.40;;
70850;SDS011;58475;49.662;9.636;2022-09-12T05:26:14;11.38;;;5.43;;
70850;SDS011;58475;49.662;9.636;2022-09-12T05:28:40;14.70;;;5.47;;
70850;SDS011;58475;49.662;9.636;2022-09-12T05:33:35;10.27;;;5.10;;
70850;SDS011;58475;49.662;9.636;2022-09-12T05:36:02;9.40;;;4.80;;
70850;SDS011;58475;49.662;9.636;2022-09-12T05:38:29;11.05;;;5.15;;
70850;SDS011;58475;49.662;9.636;2022-09-12T05:41:13;10.23;;;4.70;;
70850;SDS011;58475;49.662;9.636;2022-09-12T05:43:41;10.38;;;5.05;;
70850;SDS011;58475;49.662;9.636;2022-09-12T05:46:08;9.10;;;5.00;;
70850;SDS011;58475;49.662;9.636;2022-09-12T05:48:39;9.40;;;4.70;;
70850;SDS011;58475;49.662;9.636;2022-09-12T05:51:07;9.75;;;4.85;;
70850;SDS011;58475;49.662;9.636;2022-09-12T05:53:35;10.25;;;5.88;;
70850;SDS011;58475;49.662;9.636;2022-09-12T05:56:05;10.75;;;5.53;;
70850;SDS011;58475;49.662;9.636;2022-09-12T05:58:36;11.05;;;5.35;;
70850;SDS011;58475;49.662;9.636;2022-09-12T06:01:08;9.85;;;5.22;;
70850;SDS011;58475;49.662;9.636;2022-09-12T06:03:39;12.63;;;5.72;;
70850;SDS011;58475;49.662;9.636;2022-09-12T06:06:06;10.88;;;5.15;;
70850;SDS011;58475;49.662;9.636;2022-09-12T06:08:32;14.45;;;5.80;;
70850;SDS011;58475;49.662;9.636;2022-09-12T06:11:04;14.30;;;5.25;;
70850;SDS011;58475;49.662;9.636;2022-09-12T06:13:31;15.43;;;5.10;;
70850;SDS011;58475;49.662;9.636;2022-09-12T06:16:11;17.15;;;5.38;;
70850;SDS011;58475;49.662;9.636;2022-09-12T06:18:38;11.23;;;5.25;;
70850;SDS011;58475;49.662;9.636;2022-09-12T06:21:09;10.35;;;5.55;;
70850;SDS011;58475;49.662;9.636;2022-09-12T06:23:36;10.88;;;5.25;;
70850;SDS011;58475;49.662;9.636;2022-09-12T06:26:03;11.18;;;5.72;;
70850;SDS011;58475;49.662;9.636;2022-09-12T06:28:30;11.30;;;6.13;;
70850;SDS011;58475;49.662;9.636;2022-09-12T06:33:29;10.00;;;5.30;;
70850;SDS011;58475;49.662;9.636;2022-09-12T06:36:05;9.82;;;5.03;;
70850;SDS011;58475;49.662;9.636;2022-09-12T06:38:36;11.73;;;5.25;;
70850;SDS011;58475;49.662;9.636;2022-09-12T06:41:06;11.68;;;5.15;;
70850;SDS011;58475;49.662;9.636;2022-09-12T06:43:36;11.60;;;5.68;;
70850;SDS011;58475;49.662;9.636;2022-09-12T06:46:02;11.73;;;5.18;;
70850;SDS011;58475;49.662;9.636;2022-09-12T06:48:28;12.13;;;5.65;;
70850;SDS011;58475;49.662;9.636;2022-09-12T06:50:57;10.48;;;5.65;;
70850;SDS011;58475;49.662;9.636;2022-09-12T06:53:28;10.82;;;5.50;;
70850;SDS011;58475;49.662;9.636;2022-09-12T06:55:58;13.48;;;6.47;;
70850;SDS011;58475;49.662;9.636;2022-09-12T06:58:25;10.65;;;5.30;;
70850;SDS011;58475;49.662;9.636;2022-09-12T07:00:52;11.35;;;5.65;;
70850;SDS011;58475;49.662;9.636;2022-09-12T07:03:25;11.25;;;5.90;;
70850;SDS011;58475;49.662;9.636;2022-09-12T07:05:50;12.88;;;5.90;;
70850;SDS011;58475;49.662;9.636;2022-09-12T07:08:16;12.30;;;6.28;;
70850;SDS011;58475;49.662;9.636;2022-09-12T07:10:41;13.85;;;6.22;;
70850;SDS011;58475;49.662;9.636;2022-09-12T07:13:07;10.18;;;6.07;;
70850;SDS011;58475;49.662;9.636;2022-09-12T07:15:33;13.45;;;6.10;;
70850;SDS011;58475;49.662;9.636;2022-09-12T07:17:59;11.95;;;6.43;;
70850;SDS011;58475;49.662;9.636;2022-09-12T07:20:24;13.15;;;6.53;;
70850;SDS011;58475;49.662;9.636;2022-09-12T07:22:49;12.27;;;6.70;;
70850;SDS011;58475;49.662;9.636;2022-09-12T07:25:15;13.13;;;6.43;;
70850;SDS011;58475;49.662;9.636;2022-09-12T07:27:40;11.70;;;6.28;;
70850;SDS011;58475;49.662;9.636;2022-09-12T07:30:07;11.75;;;6.57;;
70850;SDS011;58475;49.662;9.636;2022-09-12T07:32:32;12.18;;;6.72;;
70850;SDS011;58475;49.662;9.636;2022-09-12T07:34:58;11.55;;;6.28;;
70850;SDS011;58475;49.662;9.636;2022-09-12T07:37:24;12.85;;;6.60;;
70850;SDS011;58475;49.662;9.636;2022-09-12T07:39:49;11.60;;;6.65;;
70850;SDS011;58475;49.662;9.636;2022-09-12T07:42:15;12.50;;;6.47;;
70850;SDS011;58475;49.662;9.636;2022-09-12T07:44:41;12.30;;;6.78;;
70850;SDS011;58475;49.662;9.636;2022-09-12T07:47:06;12.52;;;7.03;;
70850;SDS011;58475;49.662;9.636;2022-09-12T07:49:31;13.40;;;7.35;;
70850;SDS011;58475;49.662;9.636;2022-09-12T07:51:57;14.57;;;7.30;;
70850;SDS011;58475;49.662;9.636;2022-09-12T07:54:22;12.30;;;6.85;;
70850;SDS011;58475;49.662;9.636;2022-09-12T07:56:48;14.00;;;7.35;;
70850;SDS011;58475;49.662;9.636;2022-09-12T07:59:13;12.80;;;6.75;;
70850;SDS011;58475;49.662;9.636;2022-09-12T08:01:39;12.73;;;6.95;;
70850;SDS011;58475;49.662;9.636;2022-09-12T08:04:05;11.73;;;6.93;;
70850;SDS011;58475;49.662;9.636;2022-09-12T08:06:31;13.15;;;7.35;;
70850;SDS011;58475;49.662;9.636;2022-09-12T08:09:00;12.85;;;7.18;;
70850;SDS011;58475;49.662;9.636;2022-09-12T08:11:26;14.35;;;7.55;;
70850;SDS011;58475;49.662;9.636;2022-09-12T08:13:53;12.57;;;6.88;;
70850;SDS011;58475;49.662;9.636;2022-09-12T08:16:21;13.85;;;7.75;;
70850;SDS011;58475;49.662;9.636;2022-09-12T08:18:51;16.38;;;7.43;;
70850;SDS011;58475;49.662;9.636;2022-09-12T08:21:18;13.15;;;7.28;;
70850;SDS011;58475;49.662;9.636;2022-09-12T08:23:45;14.57;;;7.45;;
70850;SDS011;58475;49.662;9.636;2022-09-12T08:26:15;14.95;;;8.20;;
70850;SDS011;58475;49.662;9.636;2022-09-12T08:28:42;13.35;;;7.28;;
70850;SDS011;58475;49.662;9.636;2022-09-12T08:31:10;13.32;;;7.53;;
70850;SDS011;58475;49.662;9.636;2022-09-12T08:33:37;12.27;;;7.43;;
70850;SDS011;58475;49.662;9.636;2022-09-12T08:36:10;13.82;;;7.60;;
70850;SDS011;58475;49.662;9.636;2022-09-12T08:38:37;13.15;;;7.65;;
70850;SDS011;58475;49.662;9.636;2022-09-12T08:44:04;12.32;;;7.13;;
70850;SDS011;58475;49.662;9.636;2022-09-12T08:57:49;11.77;;;7.22;;
70850;SDS011;58475;49.662;9.636;2022-09-12T09:00:16;11.60;;;6.95;;
70850;SDS011;58475;49.662;9.636;2022-09-12T09:13:36;13.25;;;7.38;;
70850;SDS011;58475;49.662;9.636;2022-09-12T09:16:43;12.50;;;7.35;;
70850;SDS011;58475;49.662;9.636;2022-09-12T09:19:25;14.05;;;7.60;;
70850;SDS011;58475;49.662;9.636;2022-09-12T09:21:57;11.77;;;7.55;;
70850;SDS011;58475;49.662;9.636;2022-09-12T09:24:30;11.35;;;7.32;;
70850;SDS011;58475;49.662;9.636;2022-09-12T09:29:52;11.48;;;7.18;;
70850;SDS011;58475;49.662;9.636;2022-09-12T09:32:25;11.88;;;7.53;;
70850;SDS011;58475;49.662;9.636;2022-09-12T09:35:00;10.68;;;6.53;;
70850;SDS011;58475;49.662;9.636;2022-09-12T09:37:54;11.32;;;7.70;;
70850;SDS011;58475;49.662;9.636;2022-09-12T09:45:37;11.40;;;7.70;;
70850;SDS011;58475;49.662;9.636;2022-09-12T09:50:45;10.95;;;6.93;;
70850;SDS011;58475;49.662;9.636;2022-09-12T09:53:57;10.25;;;6.65;;
70850;SDS011;58475;49.662;9.636;2022-09-12T09:56:31;10.35;;;6.88;;
70850;SDS011;58475;49.662;9.636;2022-09-12T10:01:55;12.40;;;7.18;;
70850;SDS011;58475;49.662;9.636;2022-09-12T10:04:26;10.30;;;7.22;;
70850;SDS011;58475;49.662;9.636;2022-09-12T10:06:56;9.23;;;6.22;;
70850;SDS011;58475;49.662;9.636;2022-09-12T10:09:27;8.95;;;5.93;;
70850;SDS011;58475;49.662;9.636;2022-09-12T10:11:57;9.57;;;5.97;;
70850;SDS011;58475;49.662;9.636;2022-09-12T10:17:25;9.75;;;6.60;;
70850;SDS011;58475;49.662;9.636;2022-09-12T10:20:28;8.90;;;5.95;;
70850;SDS011;58475;49.662;9.636;2022-09-12T10:23:03;10.07;;;6.20;;
70850;SDS011;58475;49.662;9.636;2022-09-12T10:25:42;8.95;;;5.75;;
70850;SDS011;58475;49.662;9.636;2022-09-12T10:28:21;8.93;;;6.30;;
70850;SDS011;58475;49.662;9.636;2022-09-12T10:30:52;8.77;;;5.85;;
70850;SDS011;58475;49.662;9.636;2022-09-12T10:33:18;7.60;;;5.20;;
70850;SDS011;58475;49.662;9.636;2022-09-12T10:35:46;8.52;;;5.60;;
70850;SDS011;58475;49.662;9.636;2022-09-12T10:38:20;9.05;;;6.38;;
70850;SDS011;58475;49.662;9.636;2022-09-12T10:40:53;9.27;;;5.75;;
70850;SDS011;58475;49.662;9.636;2022-09-12T10:43:38;8.90;;;6.25;;
70850;SDS011;58475;49.662;9.636;2022-09-12T10:48:42;9.63;;;6.97;;
70850;SDS011;58475;49.662;9.636;2022-09-12T10:56:30;9.68;;;5.60;;
70850;SDS011;58475;49.662;9.636;2022-09-12T11:02:00;10.05;;;5.80;;
70850;SDS011;58475;49.662;9.636;2022-09-12T11:07:45;9.52;;;6.22;;
70850;SDS011;58475;49.662;9.636;2022-09-12T11:15:53;9.40;;;6.25;;
70850;SDS011;58475;49.662;9.636;2022-09-12T11:24:18;8.23;;;5.63;;
70850;SDS011;58475;49.662;9.636;2022-09-12T11:30:24;8.68;;;5.38;;
70850;SDS011;58475;49.662;9.636;2022-09-12T11:35:47;8.45;;;6.07;;
70850;SDS011;58475;49.662;9.636;2022-09-12T11:38:18;7.47;;;5.00;;
70850;SDS011;58475;49.662;9.636;2022-09-12T11:40:53;6.22;;;4.22;;
70850;SDS011;58475;49.662;9.636;2022-09-12T11:46:16;7.53;;;4.72;;
70850;SDS011;58475;49.662;9.636;2022-09-12T11:51:25;7.18;;;4.40;;
70850;SDS011;58475;49.662;9.636;2022-09-12T11:53:59;6.80;;;4.60;;
70850;SDS011;58475;49.662;9.636;2022-09-12T11:56:28;6.85;;;4.00;;
70850;SDS011;58475;49.662;9.636;2022-09-12T11:58:57;7.05;;;4.13;;
70850;SDS011;58475;49.662;9.636;2022-09-12T12:01:31;7.85;;;4.10;;
70850;SDS011;58475;49.662;9.636;2022-09-12T12:04:05;7.05;;;4.45;;
70850;SDS011;58475;49.662;9.636;2022-09-12T12:06:48;6.00;;;4.15;;
70850;SDS011;58475;49.662;9.636;2022-09-12T12:09:20;5.80;;;4.00;;
70850;SDS011;58475;49.662;9.636;2022-09-12T12:11:50;6.90;;;3.90;;
70850;SDS011;58475;49.662;9.636;2022-09-12T12:14:26;6.03;;;3.80;;
70850;SDS011;58475;49.662;9.636;2022-09-12T12:16:53;6.05;;;4.07;;
70850;SDS011;58475;49.662;9.636;2022-09-12T12:27:53;5.90;;;3.75;;
70850;SDS011;58475;49.662;9.636;2022-09-12T12:33:03;5.97;;;4.07;;
70850;SDS011;58475;49.662;9.636;2022-09-12T12:38:00;6.70;;;4.00;;
70850;SDS011;58475;49.662;9.636;2022-09-12T12:40:27;5.82;;;3.78;;
70850;SDS011;58475;49.662;9.636;2022-09-12T12:43:03;7.10;;;3.90;;
70850;SDS011;58475;49.662;9.636;2022-09-12T12:48:08;5.55;;;3.53;;
70850;SDS011;58475;49.662;9.636;2022-09-12T12:50:38;7.10;;;4.15;;
70850;SDS011;58475;49.662;9.636;2022-09-12T12:53:15;7.05;;;3.92;;
70850;SDS011;58475;49.662;9.636;2022-09-12T12:55:49;6.35;;;3.92;;
70850;SDS011;58475;49.662;9.636;2022-09-12T12:58:22;7.05;;;3.80;;
70850;SDS011;58475;49.662;9.636;2022-09-12T13:01:42;5.93;;;3.78;;
70850;SDS011;58475;49.662;9.636;2022-09-12T13:06:21;6.25;;;4.00;;
70850;SDS011;58475;49.662;9.636;2022-09-12T13:09:02;6.83;;;3.80;;
70850;SDS011;58475;49.662;9.636;2022-09-12T13:11:32;6.88;;;4.20;;
70850;SDS011;58475;49.662;9.636;2022-09-12T13:14:02;5.93;;;3.88;;
70850;SDS011;58475;49.662;9.636;2022-09-12T13:18:55;5.38;;;3.63;;
70850;SDS011;58475;49.662;9.636;2022-09-12T13:21:28;5.78;;;3.80;;
70850;SDS011;58475;49.662;9.636;2022-09-12T13:26:41;6.50;;;4.00;;
70850;SDS011;58475;49.662;9.636;2022-09-12T13:29:18;7.38;;;4.10;;
70850;SDS011;58475;49.662;9.636;2022-09-12T13:31:55;6.32;;;3.88;;
70850;SDS011;58475;49.662;9.636;2022-09-12T13:44:44;5.75;;;3.78;;
70850;SDS011;58475;49.662;9.636;2022-09-12T13:47:13;7.22;;;3.78;;
70850;SDS011;58475;49.662;9.636;2022-09-12T13:49:44;6.40;;;4.03;;
70850;SDS011;58475;49.662;9.636;2022-09-12T13:52:21;7.72;;;3.85;;
70850;SDS011;58475;49.662;9.636;2022-09-12T13:54:51;6.35;;;3.90;;
70850;SDS011;58475;49.662;9.636;2022-09-12T14:00:20;6.35;;;4.25;;
70850;SDS011;58475;49.662;9.636;2022-09-12T14:02:46;7.07;;;4.53;;
70850;SDS011;58475;49.662;9.636;2022-09-12T14:05:16;7.68;;;4.70;;
70850;SDS011;58475;49.662;9.636;2022-09-12T14:07:52;6.28;;;4.25;;
70850;SDS011;58475;49.662;9.636;2022-09-12T14:10:42;7.28;;;4.30;;
70850;SDS011;58475;49.662;9.636;2022-09-12T14:13:29;7.63;;;4.57;;
70850;SDS011;58475;49.662;9.636;2022-09-12T14:15:56;7.07;;;4.40;;
70850;SDS011;58475;49.662;9.636;2022-09-12T14:18:25;8.63;;;4.72;;
70850;SDS011;58475;49.662;9.636;2022-09-12T14:20:52;6.53;;;4.60;;
70850;SDS011;58475;49.662;9.636;2022-09-12T14:23:29;8.90;;;4.50;;
70850;SDS011;58475;49.662;9.636;2022-09-12T14:25:57;6.80;;;4.13;;
70850;SDS011;58475;49.662;9.636;2022-09-12T14:28:26;6.90;;;4.03;;
70850;SDS011;58475;49.662;9.636;2022-09-12T14:31:01;6.85;;;4.35;;
70850;SDS011;58475;49.662;9.636;2022-09-12T14:33:27;7.35;;;4.50;;
70850;SDS011;58475;49.662;9.636;2022-09-12T14:38:32;6.80;;;4.10;;
70850;SDS011;58475;49.662;9.636;2022-09-12T14:41:01;6.43;;;4.00;;
70850;SDS011;58475;49.662;9.636;2022-09-12T14:43:32;6.30;;;4.05;;
70850;SDS011;58475;49.662;9.636;2022-09-12T14:46:01;6.35;;;4.05;;
70850;SDS011;58475;49.662;9.636;2022-09-12T14:48:36;5.88;;;3.75;;
70850;SDS011;58475;49.662;9.636;2022-09-12T14:51:21;7.05;;;4.10;;
70850;SDS011;58475;49.662;9.636;2022-09-12T14:53:51;6.03;;;3.80;;
70850;SDS011;58475;49.662;9.636;2022-09-12T14:56:19;6.30;;;3.85;;
70850;SDS011;58475;49.662;9.636;2022-09-12T14:58:46;6.68;;;4.38;;
70850;SDS011;58475;49.662;9.636;2022-09-12T15:06:29;6.93;;;4.00;;
70850;SDS011;58475;49.662;9.636;2022-09-12T15:08:56;7.20;;;4.18;;
70850;SDS011;58475;49.662;9.636;2022-09-12T15:11:27;5.97;;;3.85;;
70850;SDS011;58475;49.662;9.636;2022-09-12T15:13:53;7.28;;;3.90;;
70850;SDS011;58475;49.662;9.636;2022-09-12T15:16:18;5.85;;;3.90;;
70850;SDS011;58475;49.662;9.636;2022-09-12T15:18:44;6.50;;;4.10;;
70850;SDS011;58475;49.662;9.636;2022-09-12T15:21:15;6.60;;;3.83;;
70850;SDS011;58475;49.662;9.636;2022-09-12T15:23:46;6.32;;;3.60;;
70850;SDS011;58475;49.662;9.636;2022-09-12T15:26:22;6.40;;;3.72;;
70850;SDS011;58475;49.662;9.636;2022-09-12T15:28:51;5.40;;;3.60;;
70850;SDS011;58475;49.662;9.636;2022-09-12T15:33:45;6.47;;;3.83;;
70850;SDS011;58475;49.662;9.636;2022-09-12T15:36:12;5.70;;;3.90;;
70850;SDS011;58475;49.662;9.636;2022-09-12T15:38:40;6.80;;;3.70;;
70850;SDS011;58475;49.662;9.636;2022-09-12T15:41:10;5.18;;;3.58;;
70850;SDS011;58475;49.662;9.636;2022-09-12T15:43:39;6.57;;;3.60;;
70850;SDS011;58475;49.662;9.636;2022-09-12T15:46:04;6.38;;;3.75;;
70850;SDS011;58475;49.662;9.636;2022-09-12T15:48:31;6.93;;;3.85;;
70850;SDS011;58475;49.662;9.636;2022-09-12T15:50:57;6.20;;;3.55;;
70850;SDS011;58475;49.662;9.636;2022-09-12T15:53:25;5.63;;;3.67;;
70850;SDS011;58475;49.662;9.636;2022-09-12T15:55:51;7.55;;;3.63;;
70850;SDS011;58475;49.662;9.636;2022-09-12T15:58:16;6.03;;;3.60;;
70850;SDS011;58475;49.662;9.636;2022-09-12T16:00:42;7.35;;;3.50;;
70850;SDS011;58475;49.662;9.636;2022-09-12T16:03:24;5.90;;;3.33;;
70850;SDS011;58475;49.662;9.636;2022-09-12T16:06:00;6.63;;;4.03;;
70850;SDS011;58475;49.662;9.636;2022-09-12T16:08:27;5.38;;;3.65;;
70850;SDS011;58475;49.662;9.636;2022-09-12T16:11:11;5.90;;;3.70;;
70850;SDS011;58475;49.662;9.636;2022-09-12T16:13:40;5.43;;;3.55;;
70850;SDS011;58475;49.662;9.636;2022-09-12T16:16:06;7.15;;;3.67;;
70850;SDS011;58475;49.662;9.636;2022-09-12T16:18:32;6.90;;;3.65;;
70850;SDS011;58475;49.662;9.636;2022-09-12T16:20:57;6.72;;;3.45;;
70850;SDS011;58475;49.662;9.636;2022-09-12T16:23:23;5.75;;;3.67;;
70850;SDS011;58475;49.662;9.636;2022-09-12T16:26:10;6.10;;;3.72;;
70850;SDS011;58475;49.662;9.636;2022-09-12T16:28:34;6.30;;;3.75;;
70850;SDS011;58475;49.662;9.636;2022-09-12T16:31:00;6.05;;;3.67;;
70850;SDS011;58475;49.662;9.636;2022-09-12T16:33:28;6.65;;;3.88;;
70850;SDS011;58475;49.662;9.636;2022-09-12T16:36:01;5.70;;;3.75;;
70850;SDS011;58475;49.662;9.636;2022-09-12T16:38:28;6.65;;;4.00;;
70850;SDS011;58475;49.662;9.636;2022-09-12T16:41:01;6.57;;;4.03;;
70850;SDS011;58475;49.662;9.636;2022-09-12T16:43:28;7.43;;;4.25;;
70850;SDS011;58475;49.662;9.636;2022-09-12T16:48:30;5.72;;;3.90;;
70850;SDS011;58475;49.662;9.636;2022-09-12T16:50:57;6.45;;;4.00;;
70850;SDS011;58475;49.662;9.636;2022-09-12T16:53:25;6.72;;;3.95;;
70850;SDS011;58475;49.662;9.636;2022-09-12T16:56:01;10.15;;;4.47;;
70850;SDS011;58475;49.662;9.636;2022-09-12T16:58:27;9.50;;;4.15;;
70850;SDS011;58475;49.662;9.636;2022-09-12T17:01:00;12.77;;;4.20;;
70850;SDS011;58475;49.662;9.636;2022-09-12T17:03:28;11.65;;;3.92;;
70850;SDS011;58475;49.662;9.636;2022-09-12T17:05:57;11.10;;;4.43;;
70850;SDS011;58475;49.662;9.636;2022-09-12T17:08:27;21.70;;;4.93;;
70850;SDS011;58475;49.662;9.636;2022-09-12T17:10:58;19.20;;;5.05;;
70850;SDS011;58475;49.662;9.636;2022-09-12T17:13:25;12.85;;;4.40;;
70850;SDS011;58475;49.662;9.636;2022-09-12T17:15:50;11.95;;;4.32;;
70850;SDS011;58475;49.662;9.636;2022-09-12T17:18:16;69.43;;;8.00;;
70850;SDS011;58475;49.662;9.636;2022-09-12T17:20:41;14.68;;;4.68;;
70850;SDS011;58475;49.662;9.636;2022-09-12T17:23:06;63.50;;;8.32;;
70850;SDS011;58475;49.662;9.636;2022-09-12T17:25:32;13.80;;;5.15;;
70850;SDS011;58475;49.662;9.636;2022-09-12T17:27:57;8.20;;;4.38;;
70850;SDS011;58475;49.662;9.636;2022-09-12T17:30:23;10.43;;;4.22;;
70850;SDS011;58475;49.662;9.636;2022-09-12T17:32:50;7.78;;;4.30;;
70850;SDS011;58475;49.662;9.636;2022-09-12T17:35:16;8.90;;;4.63;;
70850;SDS011;58475;49.662;9.636;2022-09-12T17:37:41;10.50;;;4.10;;
70850;SDS011;58475;49.662;9.636;2022-09-12T17:40:07;9.18;;;4.60;;
70850;SDS011;58475;49.662;9.636;2022-09-12T17:42:33;9.30;;;4.70;;
70850;SDS011;58475;49.662;9.636;2022-09-12T17:45:00;18.35;;;4.78;;
70850;SDS011;58475;49.662;9.636;2022-09-12T17:47:25;10.32;;;4.45;;
70850;SDS011;58475;49.662;9.636;2022-09-12T17:49:51;9.13;;;4.97;;
70850;SDS011;58475;49.662;9.636;2022-09-12T17:52:17;8.15;;;4.40;;